Time,TemperatureF,DewpointF,PressureIn,WindDirection,WindDirectionDegrees,WindSpeedMPH,WindSpeedGustMPH,Humidity,HourlyPrecipIn,Conditions,Clouds,dailyrainin,SoftwareType,DateUTC
2013-04-12 00:02:00,47.0,18.0,-100.00,SSW,195,5.0,10.0,30,0.00,,,-99.99,,2013-04-12 06:02:00,
2013-04-12 00:12:00,47.0,18.0,-100.00,SW,234,4.0,8.0,31,0.00,,,-99.99,,2013-04-12 06:12:00,
2013-04-12 00:22:00,47.0,18.0,-100.00,SW,236,3.0,9.0,31,0.00,,,-99.99,,2013-04-12 06:22:00,
2013-04-12 00:32:00,47.0,18.0,-100.00,SW,236,3.0,9.0,31,0.00,,,-99.99,,2013-04-12 06:32:00,
2013-04-12 00:42:00,47.0,18.0,-100.00,SW,236,3.0,9.0,31,0.00,,,-99.99,,2013-04-12 06:42:00,
2013-04-12 00:52:00,46.0,16.0,-100.00,SSW,203,3.0,5.0,30,0.00,,,-99.99,,2013-04-12 06:52:00,
2013-04-12 01:01:00,46.0,16.0,-100.00,SSW,203,3.0,5.0,30,0.00,,,-99.99,,2013-04-12 07:01:00,
2013-04-12 01:11:00,46.0,17.0,-100.00,SW,215,2.0,4.0,31,0.00,,,-99.99,,2013-04-12 07:11:00,
2013-04-12 01:22:00,45.0,19.0,-100.00,NW,316,7.0,11.0,35,0.00,,,-99.99,,2013-04-12 07:22:00,
2013-04-12 01:32:00,45.0,19.0,-100.00,NW,316,7.0,11.0,35,0.00,,,-99.99,,2013-04-12 07:32:00,
2013-04-12 01:42:00,44.0,20.0,-100.00,West,267,7.0,11.0,37,0.00,,,-99.99,,2013-04-12 07:42:00,
2013-04-12 01:52:00,44.0,20.0,-100.00,West,267,7.0,11.0,37,0.00,,,-99.99,,2013-04-12 07:52:00,
2013-04-12 02:02:00,44.0,20.0,-100.00,West,267,7.0,11.0,37,0.00,,,-99.99,,2013-04-12 08:02:00,
2013-04-12 02:12:00,43.0,21.0,-100.00,West,272,8.0,13.0,42,0.00,,,-99.99,,2013-04-12 08:12:00,
2013-04-12 02:22:00,43.0,22.0,-100.00,SSW,209,5.0,9.0,43,0.00,,,-99.99,,2013-04-12 08:22:00,
2013-04-12 02:32:00,43.0,22.0,-100.00,SSW,209,5.0,9.0,43,0.00,,,-99.99,,2013-04-12 08:32:00,
2013-04-12 02:42:00,42.0,22.0,-100.00,SSE,162,2.0,3.0,44,0.00,,,-99.99,,2013-04-12 08:42:00,
2013-04-12 02:52:00,42.0,22.0,-100.00,SSE,162,2.0,3.0,44,0.00,,,-99.99,,2013-04-12 08:52:00,
2013-04-12 03:01:00,42.0,22.0,-100.00,SSE,162,2.0,3.0,44,0.00,,,-99.99,,2013-04-12 09:01:00,
2013-04-12 03:12:00,42.0,22.0,-100.00,SSE,162,2.0,3.0,44,0.00,,,-99.99,,2013-04-12 09:12:00,
2013-04-12 03:22:00,42.0,23.0,-100.00,NNE,18,5.0,9.0,47,0.00,,,-99.99,,2013-04-12 09:22:00,
2013-04-12 03:33:00,42.0,23.0,-100.00,NNE,18,5.0,9.0,47,0.00,,,-99.99,,2013-04-12 09:33:00,
2013-04-12 03:44:00,41.0,23.0,-100.00,SW,233,3.0,6.0,47,0.00,,,-99.99,,2013-04-12 09:44:00,
2013-04-12 03:53:00,41.0,23.0,-100.00,WSW,251,5.0,9.0,50,0.00,,,-99.99,,2013-04-12 09:53:00,
2013-04-12 04:02:00,41.0,23.0,-100.00,WSW,251,5.0,9.0,50,0.00,,,-99.99,,2013-04-12 10:02:00,
2013-04-12 04:12:00,41.0,23.0,-100.00,WSW,251,5.0,9.0,50,0.00,,,-99.99,,2013-04-12 10:12:00,
2013-04-12 04:22:00,40.0,24.0,-100.00,WNW,287,1.0,3.0,53,0.00,,,-99.99,,2013-04-12 10:22:00,
2013-04-12 04:33:00,40.0,24.0,-100.00,WNW,287,1.0,3.0,53,0.00,,,-99.99,,2013-04-12 10:33:00,
2013-04-12 04:42:00,40.0,24.0,-100.00,East,83,4.0,6.0,53,0.00,,,-99.99,,2013-04-12 10:42:00,
2013-04-12 04:52:00,36.0,24.0,-100.00,ESE,116,3.0,5.0,59,0.00,,,-99.99,,2013-04-12 10:52:00,
2013-04-12 05:02:00,36.0,24.0,-100.00,ESE,116,3.0,5.0,59,0.00,,,-99.99,,2013-04-12 11:02:00,
2013-04-12 05:12:00,39.0,25.0,-100.00,WSW,243,5.0,9.0,57,0.00,,,-99.99,,2013-04-12 11:12:00,
2013-04-12 05:22:00,38.0,25.0,-100.00,West,281,2.0,4.0,58,0.00,,,-99.99,,2013-04-12 11:22:00,
2013-04-12 05:32:00,38.0,25.0,-100.00,West,281,2.0,4.0,58,0.00,,,-99.99,,2013-04-12 11:32:00,
2013-04-12 05:42:00,38.0,25.0,-100.00,WSW,247,1.0,2.0,59,0.00,,,-99.99,,2013-04-12 11:42:00,
2013-04-12 05:52:00,38.0,25.0,-100.00,South,172,1.0,2.0,60,0.00,,,-99.99,,2013-04-12 11:52:00,
2013-04-12 06:02:00,38.0,25.0,-100.00,South,172,1.0,2.0,60,0.00,,,-99.99,,2013-04-12 12:02:00,
2013-04-12 06:12:00,36.0,25.0,-100.00,ESE,123,3.0,4.0,63,0.00,,,-99.99,,2013-04-12 12:12:00,
2013-04-12 06:22:00,34.0,25.0,-100.00,SE,130,4.0,5.0,69,0.00,,,-99.99,,2013-04-12 12:22:00,
2013-04-12 06:32:00,34.0,25.0,-100.00,SE,130,4.0,5.0,69,0.00,,,-99.99,,2013-04-12 12:32:00,
2013-04-12 06:42:00,34.0,25.0,-100.00,ESE,123,4.0,4.0,69,0.00,,,-99.99,,2013-04-12 12:42:00,
2013-04-12 06:53:00,34.0,25.0,-100.00,ESE,123,4.0,4.0,69,0.00,,,-99.99,,2013-04-12 12:53:00,
2013-04-12 07:02:00,34.0,25.0,-100.00,ESE,123,4.0,4.0,69,0.00,,,-99.99,,2013-04-12 13:02:00,
2013-04-12 07:12:00,33.0,25.0,-100.00,SE,126,4.0,6.0,71,0.00,,,-99.99,,2013-04-12 13:12:00,
2013-04-12 07:22:00,34.0,25.0,-100.00,ESE,114,4.0,6.0,70,0.00,,,-99.99,,2013-04-12 13:22:00,
2013-04-12 07:32:00,34.0,25.0,-100.00,ESE,114,4.0,6.0,70,0.00,,,-99.99,,2013-04-12 13:32:00,
2013-04-12 07:42:00,34.0,25.0,-100.00,ESE,107,5.0,6.0,69,0.00,,,-99.99,,2013-04-12 13:42:00,
2013-04-12 07:53:00,34.0,26.0,-100.00,ESE,106,4.0,6.0,70,0.00,,,-99.99,,2013-04-12 13:53:00,
2013-04-12 08:02:00,34.0,26.0,-100.00,ESE,106,4.0,6.0,70,0.00,,,-99.99,,2013-04-12 14:02:00,
2013-04-12 08:12:00,36.0,26.0,-100.00,ESE,102,5.0,6.0,67,0.00,,,-99.99,,2013-04-12 14:12:00,
2013-04-12 08:22:00,37.0,27.0,-100.00,ENE,62,5.0,7.0,67,0.00,,,-99.99,,2013-04-12 14:22:00,
2013-04-12 08:32:00,37.0,27.0,-100.00,ENE,62,5.0,7.0,67,0.00,,,-99.99,,2013-04-12 14:32:00,
2013-04-12 08:42:00,37.0,27.0,-100.00,ENE,62,5.0,7.0,67,0.00,,,-99.99,,2013-04-12 14:42:00,
2013-04-12 08:53:00,40.0,27.0,-100.00,NE,54,2.0,4.0,61,0.00,,,-99.99,,2013-04-12 14:53:00,
2013-04-12 09:00:00,42.0,28.0,-100.00,East,85,2.0,3.0,57,0.00,,,-99.99,,2013-04-12 15:00:00,
2013-04-12 09:02:00,40.0,27.0,-100.00,NE,54,2.0,4.0,61,0.00,,,-99.99,,2013-04-12 15:02:00,
2013-04-12 09:12:00,40.0,27.0,-100.00,NE,54,2.0,4.0,61,0.00,,,-99.99,,2013-04-12 15:12:00,
2013-04-12 09:22:00,42.0,28.0,-100.00,East,85,2.0,3.0,57,0.00,,,-99.99,,2013-04-12 15:22:00,
2013-04-12 09:33:00,42.0,28.0,-100.00,East,85,2.0,3.0,57,0.00,,,-99.99,,2013-04-12 15:33:00,
2013-04-12 09:43:00,42.0,28.0,-100.00,East,85,2.0,3.0,57,0.00,,,-99.99,,2013-04-12 15:43:00,
2013-04-12 09:53:00,42.0,28.0,-100.00,East,85,2.0,3.0,57,0.00,,,-99.99,,2013-04-12 15:53:00,
2013-04-12 10:13:00,42.0,27.0,-100.00,NNE,30,6.0,8.0,55,0.00,,,-99.99,,2013-04-12 16:13:00,
2013-04-12 10:22:00,43.0,28.0,-100.00,NNW,339,3.0,6.0,54,0.00,,,-99.99,,2013-04-12 16:22:00,
2013-04-12 10:33:00,43.0,28.0,-100.00,NNW,339,3.0,6.0,54,0.00,,,-99.99,,2013-04-12 16:33:00,
2013-04-12 10:42:00,44.0,28.0,-100.00,NE,34,5.0,6.0,54,0.00,,,-99.99,,2013-04-12 16:42:00,
2013-04-12 10:53:00,44.0,28.0,-100.00,NE,34,5.0,6.0,54,0.00,,,-99.99,,2013-04-12 16:53:00,
2013-04-12 11:02:00,44.0,28.0,-100.00,NE,34,5.0,6.0,54,0.00,,,-99.99,,2013-04-12 17:02:00,
2013-04-12 11:12:00,44.0,28.0,-100.00,WSW,241,3.0,4.0,52,0.00,,,-99.99,,2013-04-12 17:12:00,
2013-04-12 11:22:00,45.0,26.0,-100.00,North,3,5.0,7.0,48,0.00,,,-99.99,,2013-04-12 17:22:00,
2013-04-12 11:33:00,45.0,26.0,-100.00,North,3,5.0,7.0,48,0.00,,,-99.99,,2013-04-12 17:33:00,
2013-04-12 11:44:00,47.0,26.0,-100.00,WNW,292,3.0,5.0,44,0.00,,,-99.99,,2013-04-12 17:44:00,
2013-04-12 12:02:00,47.0,26.0,-100.00,WNW,292,3.0,5.0,44,0.00,,,-99.99,,2013-04-12 18:02:00,
2013-04-12 12:14:00,49.0,28.0,-100.00,SE,130,3.0,5.0,44,0.00,,,-99.99,,2013-04-12 18:14:00,
2013-04-12 12:30:00,47.0,24.0,-100.00,West,270,2.0,3.0,40,0.00,,,-99.99,,2013-04-12 18:30:00,
2013-04-12 13:26:00,51.0,26.0,-100.00,NNW,347,4.0,5.0,37,0.00,,,-99.99,,2013-04-12 19:26:00,
2013-04-12 13:32:00,51.0,26.0,-100.00,NNW,347,4.0,5.0,37,0.00,,,-99.99,,2013-04-12 19:32:00,
2013-04-12 13:42:00,51.0,26.0,-100.00,NW,309,4.0,6.0,37,0.00,,,-99.99,,2013-04-12 19:42:00,
2013-04-12 13:53:00,52.0,26.0,-100.00,NW,325,6.0,9.0,37,0.00,,,-99.99,,2013-04-12 19:53:00,
2013-04-12 14:02:00,52.0,26.0,-100.00,NW,325,6.0,9.0,37,0.00,,,-99.99,,2013-04-12 20:02:00,
2013-04-12 14:12:00,53.0,25.0,-100.00,NNE,24,5.0,8.0,33,0.00,,,-99.99,,2013-04-12 20:12:00,
2013-04-12 14:22:00,53.0,25.0,-100.00,NNE,24,5.0,8.0,33,0.00,,,-99.99,,2013-04-12 20:22:00,
2013-04-12 14:32:00,53.0,25.0,-100.00,NNE,24,5.0,8.0,33,0.00,,,-99.99,,2013-04-12 20:32:00,
2013-04-12 14:42:00,53.0,24.0,-100.00,North,354,12.0,17.0,32,0.00,,,-99.99,,2013-04-12 20:42:00,
2013-04-12 14:52:00,55.0,26.0,-100.00,NNW,329,6.0,10.0,33,0.00,,,-99.99,,2013-04-12 20:52:00,
2013-04-12 15:02:00,55.0,26.0,-100.00,NNW,329,6.0,10.0,33,0.00,,,-99.99,,2013-04-12 21:02:00,
2013-04-12 15:11:00,55.0,27.0,-100.00,NW,312,9.0,13.0,34,0.00,,,-99.99,,2013-04-12 21:11:00,
2013-04-12 15:22:00,55.0,27.0,-100.00,NW,312,9.0,13.0,34,0.00,,,-99.99,,2013-04-12 21:22:00,
2013-04-12 15:32:00,55.0,27.0,-100.00,NW,312,9.0,13.0,34,0.00,,,-99.99,,2013-04-12 21:32:00,
2013-04-12 15:42:00,55.0,24.0,-100.00,WNW,285,11.0,17.0,30,0.00,,,-99.99,,2013-04-12 21:42:00,
2013-04-12 15:52:00,55.0,24.0,-100.00,WNW,285,11.0,17.0,30,0.00,,,-99.99,,2013-04-12 21:52:00,
2013-04-12 16:02:00,55.0,24.0,-100.00,WNW,285,11.0,17.0,30,0.00,,,-99.99,,2013-04-12 22:02:00,
2013-04-12 16:12:00,56.0,22.0,-100.00,WNW,289,7.0,16.0,27,0.00,,,-99.99,,2013-04-12 22:12:00,
2013-04-12 16:22:00,56.0,22.0,-100.00,WNW,289,7.0,16.0,27,0.00,,,-99.99,,2013-04-12 22:22:00,
2013-04-12 16:32:00,56.0,22.0,-100.00,WNW,289,7.0,16.0,27,0.00,,,-99.99,,2013-04-12 22:32:00,
2013-04-12 16:42:00,56.0,23.0,-100.00,NW,316,9.0,14.0,28,0.00,,,-99.99,,2013-04-12 22:42:00,
2013-04-12 16:52:00,56.0,21.0,-100.00,WNW,301,9.0,18.0,25,0.00,,,-99.99,,2013-04-12 22:52:00,
2013-04-12 17:03:00,56.0,21.0,-100.00,WNW,301,9.0,18.0,25,0.00,,,-99.99,,2013-04-12 23:03:00,
2013-04-12 17:12:00,57.0,22.0,-100.00,WNW,295,10.0,15.0,26,0.00,,,-99.99,,2013-04-12 23:12:00,
2013-04-12 17:22:00,57.0,23.0,-100.00,NW,306,5.0,7.0,26,0.00,,,-99.99,,2013-04-12 23:22:00,
2013-04-12 17:32:00,57.0,23.0,-100.00,NW,306,5.0,7.0,26,0.00,,,-99.99,,2013-04-12 23:32:00,
2013-04-12 17:42:00,57.0,21.0,-100.00,West,274,8.0,15.0,25,0.00,,,-99.99,,2013-04-12 23:42:00,
2013-04-12 17:52:00,57.0,21.0,-100.00,West,274,8.0,15.0,25,0.00,,,-99.99,,2013-04-12 23:52:00,
2013-04-12 18:01:00,57.0,21.0,-100.00,West,274,8.0,15.0,25,0.00,,,-99.99,,2013-04-13 00:01:00,
2013-04-12 18:12:00,58.0,22.0,-100.00,WNW,291,7.0,12.0,24,0.00,,,-99.99,,2013-04-13 00:12:00,
2013-04-12 18:22:00,58.0,21.0,-100.00,WNW,296,5.0,11.0,24,0.00,,,-99.99,,2013-04-13 00:22:00,
2013-04-12 18:32:00,58.0,21.0,-100.00,WNW,296,5.0,11.0,24,0.00,,,-99.99,,2013-04-13 00:32:00,
2013-04-12 18:42:00,58.0,22.0,-100.00,West,271,5.0,9.0,25,0.00,,,-99.99,,2013-04-13 00:42:00,
2013-04-12 18:52:00,58.0,23.0,-100.00,West,270,3.0,7.0,25,0.00,,,-99.99,,2013-04-13 00:52:00,
2013-04-12 19:02:00,58.0,23.0,-100.00,West,270,3.0,7.0,25,0.00,,,-99.99,,2013-04-13 01:02:00,
2013-04-12 19:12:00,57.0,23.0,-100.00,WNW,284,4.0,6.0,26,0.00,,,-99.99,,2013-04-13 01:12:00,
2013-04-12 19:22:00,57.0,22.0,-100.00,WNW,294,5.0,11.0,26,0.00,,,-99.99,,2013-04-13 01:22:00,
2013-04-12 19:32:00,57.0,22.0,-100.00,WNW,294,5.0,11.0,26,0.00,,,-99.99,,2013-04-13 01:32:00,
2013-04-12 19:42:00,55.0,22.0,-100.00,West,280,3.0,6.0,28,0.00,,,-99.99,,2013-04-13 01:42:00,
2013-04-12 19:52:00,54.0,23.0,-100.00,WNW,287,3.0,6.0,29,0.00,,,-99.99,,2013-04-13 01:52:00,
2013-04-12 20:02:00,54.0,23.0,-100.00,WNW,287,3.0,6.0,29,0.00,,,-99.99,,2013-04-13 02:02:00,
2013-04-12 20:12:00,54.0,23.0,-100.00,WNW,287,3.0,6.0,29,0.00,,,-99.99,,2013-04-13 02:12:00,
2013-04-12 20:22:00,54.0,23.0,-100.00,West,278,3.0,5.0,30,0.00,,,-99.99,,2013-04-13 02:22:00,
2013-04-12 20:32:00,54.0,23.0,-100.00,West,278,3.0,5.0,30,0.00,,,-99.99,,2013-04-13 02:32:00,
2013-04-12 20:42:00,53.0,23.0,-100.00,WNW,285,2.0,4.0,31,0.00,,,-99.99,,2013-04-13 02:42:00,
2013-04-12 20:53:00,51.0,25.0,-100.00,South,184,1.0,2.0,36,0.00,,,-99.99,,2013-04-13 02:53:00,
2013-04-12 21:02:00,51.0,25.0,-100.00,South,184,1.0,2.0,36,0.00,,,-99.99,,2013-04-13 03:02:00,
2013-04-12 21:12:00,51.0,25.0,-100.00,South,184,1.0,2.0,36,0.00,,,-99.99,,2013-04-13 03:12:00,
2013-04-12 21:22:00,50.0,26.0,-100.00,SSE,155,4.0,5.0,39,0.00,,,-99.99,,2013-04-13 03:22:00,
2013-04-12 21:32:00,50.0,26.0,-100.00,SSE,155,4.0,5.0,39,0.00,,,-99.99,,2013-04-13 03:32:00,
2013-04-12 21:42:00,52.0,25.0,-100.00,South,188,6.0,7.0,34,0.00,,,-99.99,,2013-04-13 03:42:00,
2013-04-12 21:53:00,51.0,27.0,-100.00,South,182,5.0,7.0,39,0.00,,,-99.99,,2013-04-13 03:53:00,
2013-04-12 22:02:00,51.0,27.0,-100.00,South,182,5.0,7.0,39,0.00,,,-99.99,,2013-04-13 04:02:00,
2013-04-12 22:12:00,51.0,24.0,-100.00,South,189,9.0,11.0,34,0.00,,,-99.99,,2013-04-13 04:12:00,
2013-04-12 22:22:00,51.0,24.0,-100.00,South,189,9.0,11.0,34,0.00,,,-99.99,,2013-04-13 04:22:00,
2013-04-12 22:32:00,51.0,24.0,-100.00,South,189,9.0,11.0,34,0.00,,,-99.99,,2013-04-13 04:32:00,
2013-04-12 22:42:00,51.0,23.0,-100.00,SSW,199,8.0,11.0,33,0.00,,,-99.99,,2013-04-13 04:42:00,
2013-04-12 22:53:00,50.0,22.0,-100.00,South,169,10.0,13.0,33,0.00,,,-99.99,,2013-04-13 04:53:00,
2013-04-12 23:02:00,50.0,22.0,-100.00,South,169,10.0,13.0,33,0.00,,,-99.99,,2013-04-13 05:02:00,
2013-04-12 23:12:00,51.0,22.0,-100.00,South,174,13.0,17.0,33,0.00,,,-99.99,,2013-04-13 05:12:00,
2013-04-12 23:22:00,51.0,22.0,-100.00,South,174,15.0,19.0,32,0.00,,,-99.99,,2013-04-13 05:22:00,
2013-04-12 23:31:00,51.0,22.0,-100.00,South,174,15.0,19.0,32,0.00,,,-99.99,,2013-04-13 05:31:00,
2013-04-12 23:42:00,51.0,22.0,-100.00,South,182,16.0,25.0,31,0.00,,,-99.99,,2013-04-13 05:42:00,
2013-04-12 23:52:00,50.0,22.0,-100.00,South,184,13.0,17.0,32,0.00,,,-99.99,,2013-04-13 05:52:00,